createdAt,value
2023-04-18T00:00:57.671Z,7.70
2023-04-18T00:06:01.130Z,7.70
2023-04-18T00:11:04.340Z,7.70
2023-04-18T00:16:09.046Z,7.70
2023-04-18T00:21:13.781Z,7.70
2023-04-18T00:26:17.184Z,7.70
2023-04-18T00:31:20.430Z,7.70
2023-04-18T00:36:23.680Z,7.70
2023-04-18T00:41:28.701Z,7.60
2023-04-18T00:46:32.023Z,7.70
2023-04-18T00:51:36.343Z,7.70
2023-04-18T00:56:39.911Z,7.70
2023-04-18T01:01:44.089Z,7.70
2023-04-18T01:06:47.379Z,7.70
2023-04-18T01:11:50.551Z,7.70
2023-04-18T01:16:54.074Z,7.70
2023-04-18T01:21:57.442Z,7.70
2023-04-18T01:27:02.286Z,7.60
2023-04-18T01:32:06.172Z,7.60
2023-04-18T01:37:09.501Z,7.60
2023-04-18T01:42:12.685Z,7.50
2023-04-18T01:47:15.855Z,7.50
2023-04-18T01:52:19.705Z,7.40
2023-04-18T01:57:22.993Z,7.30
2023-04-18T02:02:26.448Z,7.30
2023-04-18T02:07:29.992Z,7.20
2023-04-18T02:12:34.710Z,7.20
2023-04-18T02:17:38.365Z,7.20
2023-04-18T02:22:42.081Z,7.10
2023-04-18T02:27:45.701Z,7.10
2023-04-18T02:32:54.682Z,7.10
2023-04-18T02:37:58.072Z,7.10
2023-04-18T02:43:02.919Z,7.10
2023-04-18T02:48:06.300Z,7.10
2023-04-18T02:53:09.630Z,7.20
2023-04-18T02:58:13.156Z,7.20
2023-04-18T03:03:16.805Z,7.30
2023-04-18T03:08:20.541Z,7.20
2023-04-18T03:13:23.792Z,7.30
2023-04-18T03:18:27.457Z,7.40
2023-04-18T03:23:30.979Z,7.40
2023-04-18T03:28:34.542Z,7.40
2023-04-18T03:33:39.553Z,7.40
2023-04-18T03:38:42.931Z,7.40
2023-04-18T03:43:46.399Z,7.30
2023-04-18T03:48:49.876Z,7.40
2023-04-18T03:53:53.453Z,7.40
2023-04-18T03:58:56.734Z,7.40
2023-04-18T04:04:00.435Z,7.40
2023-04-18T04:09:04.039Z,7.40
2023-04-18T04:14:07.517Z,7.40
2023-04-18T04:19:11.097Z,7.50
2023-04-18T04:24:14.390Z,7.50
2023-04-18T04:29:19.350Z,7.50
2023-04-18T04:34:22.551Z,7.60
2023-04-18T04:39:25.943Z,7.60
2023-04-18T04:44:29.788Z,7.70
2023-04-18T04:49:33.084Z,7.70
2023-04-18T04:54:36.601Z,7.70
2023-04-18T04:59:39.851Z,7.80
2023-04-18T05:04:43.209Z,7.80
2023-04-18T05:09:46.497Z,7.80
2023-04-18T05:14:50.061Z,7.90
2023-04-18T05:19:53.287Z,7.90
2023-04-18T05:24:56.978Z,7.90
2023-04-18T05:30:00.203Z,8.00
2023-04-18T05:35:03.710Z,8.00
2023-04-18T05:40:07.484Z,8.00
2023-04-18T05:45:11.079Z,8.00
2023-04-18T05:50:14.597Z,8.10
2023-04-18T05:55:17.822Z,8.10
2023-04-18T06:00:21.468Z,8.20
2023-04-18T06:05:24.938Z,8.20
2023-04-18T06:10:28.273Z,8.30
2023-04-18T06:15:31.931Z,8.40
2023-04-18T06:20:36.025Z,8.40
2023-04-18T06:25:42.211Z,8.50
2023-04-18T06:30:45.843Z,8.50
2023-04-18T06:35:49.266Z,8.60
2023-04-18T06:40:52.592Z,8.70
2023-04-18T06:45:56.922Z,8.80
2023-04-18T06:51:00.019Z,8.80
2023-04-18T06:56:03.260Z,8.90
2023-04-18T07:01:06.574Z,9.10
2023-04-18T07:06:10.999Z,9.20
2023-04-18T07:11:14.213Z,9.40
2023-04-18T07:16:17.779Z,9.60
2023-04-18T07:21:21.026Z,9.70
2023-04-18T07:26:24.420Z,9.90
2023-04-18T07:31:28.984Z,10.00
2023-04-18T07:36:32.532Z,10.20
2023-04-18T07:41:36.141Z,10.20
2023-04-18T07:46:39.451Z,10.30
2023-04-18T07:51:42.701Z,10.40
2023-04-18T07:56:46.262Z,10.40
2023-04-18T08:01:49.555Z,10.60
2023-04-18T08:06:52.978Z,10.70
2023-04-18T08:11:59.854Z,10.80
2023-04-18T08:17:03.773Z,10.90
2023-04-18T08:22:11.250Z,11.10
2023-04-18T08:27:14.581Z,11.20
2023-04-18T08:32:17.759Z,11.30
2023-04-18T08:37:20.897Z,11.40
2023-04-18T08:42:24.572Z,11.50
2023-04-18T08:47:30.353Z,11.60
2023-04-18T08:52:36.548Z,11.80
2023-04-18T08:57:40.200Z,11.90
2023-04-18T09:02:45.258Z,12.10
2023-04-18T09:07:50.374Z,12.20
2023-04-18T09:12:53.967Z,12.40
2023-04-18T09:18:00.113Z,12.60
2023-04-18T09:23:05.986Z,12.60
2023-04-18T09:28:24.416Z,12.80
2023-04-18T09:33:29.467Z,13.00
2023-04-18T09:38:42.223Z,13.10
2023-04-18T09:43:47.011Z,13.10
2023-04-18T09:48:50.278Z,13.10
2023-04-18T09:53:53.830Z,13.40
2023-04-18T09:59:08.962Z,13.50
2023-04-18T10:04:13.105Z,13.50
2023-04-18T10:09:16.951Z,13.50
2023-04-18T10:14:20.760Z,13.30
2023-04-18T10:19:26.343Z,13.40
2023-04-18T10:24:50.798Z,13.70
2023-04-18T10:29:54.601Z,13.80
2023-04-18T10:35:01.119Z,13.90
2023-04-18T10:40:07.405Z,13.90
2023-04-18T10:45:21.935Z,14.00
2023-04-18T10:50:25.079Z,14.00
2023-04-18T10:55:31.291Z,14.00
2023-04-18T11:00:34.821Z,14.00
2023-04-18T11:05:38.281Z,13.90
2023-04-18T11:10:41.876Z,13.90
2023-04-18T11:15:44.987Z,14.00
2023-04-18T11:20:50.059Z,14.20
2023-04-18T11:25:56.767Z,14.40
2023-04-18T11:31:02.336Z,14.60
2023-04-18T11:36:06.041Z,14.90
2023-04-18T11:41:20.272Z,15.00
2023-04-18T11:46:23.464Z,15.40
2023-04-18T11:51:44.003Z,15.30
2023-04-18T11:56:50.574Z,15.00
2023-04-18T12:02:14.679Z,15.00
2023-04-18T12:07:35.154Z,14.90
2023-04-18T12:12:52.024Z,15.00
2023-04-18T12:18:08.639Z,15.30
2023-04-18T12:23:40.802Z,15.50
2023-04-18T12:28:46.893Z,15.50
2023-04-18T12:33:51.282Z,15.40
2023-04-18T12:38:54.959Z,15.40
2023-04-18T12:43:57.942Z,15.50
2023-04-18T12:49:01.265Z,15.60
2023-04-18T12:54:04.606Z,15.60
2023-04-18T12:59:08.534Z,15.70
2023-04-18T13:04:15.119Z,15.70
2023-04-18T13:09:18.429Z,15.60
2023-04-18T13:14:21.957Z,15.80
2023-04-18T13:19:25.563Z,15.90
2023-04-18T13:24:28.811Z,15.60
2023-04-18T13:29:32.172Z,15.50
2023-04-18T13:34:38.673Z,15.50
2023-04-18T13:39:42.314Z,15.60
2023-04-18T13:44:46.572Z,16.10
2023-04-18T13:49:53.172Z,16.70
2023-04-18T13:54:56.417Z,17.20
2023-04-18T13:59:59.659Z,16.50
2023-04-18T14:05:02.832Z,15.70
2023-04-18T14:10:06.746Z,15.30
2023-04-18T14:15:10.846Z,15.00
2023-04-18T14:20:16.337Z,14.90
2023-04-18T14:25:19.720Z,14.90
2023-04-18T14:30:23.214Z,14.80
2023-04-18T14:35:26.515Z,14.80
2023-04-18T14:40:32.608Z,14.80
2023-04-18T14:45:36.233Z,14.80
2023-04-18T14:50:39.641Z,15.00
2023-04-18T14:55:45.134Z,15.10
2023-04-18T15:00:49.427Z,15.70
2023-04-18T15:05:53.559Z,16.50
2023-04-18T15:10:57.090Z,16.30
2023-04-18T15:16:03.588Z,16.80
2023-04-18T15:21:06.845Z,17.10
2023-04-18T15:26:10.172Z,17.60
2023-04-18T15:31:14.771Z,17.20
2023-04-18T15:36:17.962Z,16.40
2023-04-18T15:41:21.722Z,15.40
2023-04-18T15:46:25.463Z,15.20
2023-04-18T15:51:29.027Z,15.10
2023-04-18T15:56:33.622Z,14.60
2023-04-18T16:01:37.135Z,14.40
2023-04-18T16:06:41.121Z,14.20
2023-04-18T16:11:44.259Z,13.80
2023-04-18T16:16:47.735Z,13.50
2023-04-18T16:21:51.327Z,13.20
2023-04-18T16:26:55.929Z,13.00
2023-04-18T16:31:59.194Z,12.90
2023-04-18T16:37:05.501Z,12.80
2023-04-18T16:42:10.740Z,12.70
2023-04-18T16:47:16.900Z,12.60
2023-04-18T16:52:21.254Z,12.50
2023-04-18T16:57:24.786Z,12.40
2023-04-18T17:02:30.672Z,12.30
2023-04-18T17:07:35.787Z,12.20
2023-04-18T17:12:41.888Z,12.10
2023-04-18T17:17:48.573Z,11.90
2023-04-18T17:22:52.575Z,11.80
2023-04-18T17:27:57.346Z,11.60
2023-04-18T17:33:01.734Z,11.50
2023-04-18T17:38:06.335Z,11.50
2023-04-18T17:43:12.110Z,11.40
2023-04-18T17:48:19.179Z,11.40
2023-04-18T17:53:26.170Z,11.40
2023-04-18T17:58:32.073Z,11.30
2023-04-18T18:03:42.403Z,11.20
2023-04-18T18:08:47.716Z,11.10
2023-04-18T18:13:54.973Z,11.00
2023-04-18T18:19:00.207Z,10.90
2023-04-18T18:24:04.786Z,10.80
2023-04-18T18:29:12.134Z,10.80
2023-04-18T18:34:18.141Z,10.60
2023-04-18T18:39:23.025Z,10.60
2023-04-18T18:44:29.968Z,10.50
2023-04-18T18:49:35.698Z,10.40
2023-04-18T18:54:41.148Z,10.30
2023-04-18T18:59:47.259Z,10.10
2023-04-18T19:04:54.597Z,10.00
2023-04-18T19:10:03.266Z,9.80
2023-04-18T19:15:08.322Z,9.70
2023-04-18T19:20:13.743Z,9.60
2023-04-18T19:25:20.115Z,9.60
2023-04-18T19:30:31.905Z,9.60
2023-04-18T19:35:39.232Z,9.60
2023-04-18T19:40:44.444Z,9.50
2023-04-18T19:45:49.109Z,9.40
2023-04-18T19:50:53.662Z,9.40
2023-04-18T19:56:02.442Z,9.30
2023-04-18T20:01:09.368Z,9.10
2023-04-18T20:06:14.950Z,9.00
2023-04-18T20:11:21.805Z,8.90
2023-04-18T20:16:29.495Z,8.80
2023-04-18T20:21:35.460Z,8.60
2023-04-18T20:26:40.032Z,8.40
2023-04-18T20:31:44.592Z,8.30
2023-04-18T20:36:48.459Z,8.10
2023-04-18T20:41:54.322Z,8.00
2023-04-18T20:47:02.241Z,7.90
2023-04-18T20:52:10.770Z,7.80
2023-04-18T20:57:14.225Z,7.70
2023-04-18T21:02:18.106Z,7.50
2023-04-18T21:07:21.991Z,7.40
2023-04-18T21:12:25.319Z,7.40
2023-04-18T21:17:29.051Z,7.30
2023-04-18T21:22:32.295Z,7.20
2023-04-18T21:27:36.401Z,7.10
2023-04-18T21:32:40.408Z,7.00
2023-04-18T21:37:43.739Z,6.90
2023-04-18T21:42:48.156Z,6.90
2023-04-18T21:47:53.072Z,6.90
2023-04-18T21:52:56.578Z,6.90
2023-04-18T21:57:59.820Z,6.90
2023-04-18T22:03:03.169Z,6.90
2023-04-18T22:08:06.651Z,6.80
2023-04-18T22:13:10.419Z,6.70
2023-04-18T22:18:14.600Z,6.70
2023-04-18T22:23:17.958Z,6.60
2023-04-18T22:28:23.209Z,6.70
2023-04-18T22:33:26.799Z,6.60
2023-04-18T22:38:30.093Z,6.50
2023-04-18T22:43:33.679Z,6.30
2023-04-18T22:48:37.098Z,6.20
2023-04-18T22:53:40.290Z,6.10
2023-04-18T22:58:43.435Z,6.10
2023-04-18T23:03:47.013Z,6.00
2023-04-18T23:08:50.755Z,6.00
2023-04-18T23:13:54.014Z,5.90
2023-04-18T23:18:57.154Z,5.90
2023-04-18T23:24:00.826Z,5.80
2023-04-18T23:29:04.114Z,5.70
2023-04-18T23:34:07.395Z,5.80
2023-04-18T23:39:10.683Z,5.80
2023-04-18T23:44:14.274Z,5.80
2023-04-18T23:49:17.671Z,5.60
2023-04-18T23:54:20.793Z,5.50
2023-04-18T23:59:24.054Z,5.50
